»·PEaware :: CGDTE KLGB-KSMX

CGDTE :: KLGB-KSMX

FLIGHT INFORMATION

Flight Status: Arrived
Operator: Unknown
More flights by this operator :: More flights under this callsign
Pilot: Darcy E. (30361)
Aircraft: CESSNA 172 SKYHAWK
(C172)
More flights by this aircraft type
Origin: KLGB Long Beach
United States
Destination: KSMX Santa Maria Pub/Capt Hancock
United States
More flights between these airports :: More routes between these airports
Route: HAWWC3 IKAYE RZS
File this flight plan on PilotEdge
Remarks:
Altitude:
(Current/Filed)
8,000ft
Speed:
(Current/Filed)
110kts
Departed: 13-Jan-21 06:10 PM
Arrived: 13-Jan-21 07:27 PM
Distance/Time
Traveled:
131nm/1:17
Distance/Time
To Go:
Arrived

Flight Plot

Page will automatically refresh every two minutes.

Flight plan parsing failed; only flown route is shown


Map Options




Map Legend


Flown Route
Filed Route
Departure Airport
Arrival Airport
Navaid (VOR, NDB)
Fix

Horizontal Profiles

Position Reports

Time Latitude Longitude Heading Altitude Ground
Speed
13-Jan-21 17:18 33.821609 -118.162122 180 53ft 0kts
13-Jan-21 17:19 33.821609 -118.162122 180 53ft 0kts
13-Jan-21 17:20 33.821609 -118.162122 180 53ft 0kts
13-Jan-21 17:21 33.821609 -118.162122 180 53ft 0kts
13-Jan-21 17:22 33.821609 -118.162122 180 53ft 0kts
13-Jan-21 17:23 33.821609 -118.162122 180 53ft 0kts
13-Jan-21 17:24 33.821609 -118.162122 180 53ft 0kts
13-Jan-21 17:25 33.821609 -118.162122 180 53ft 0kts
13-Jan-21 17:26 33.821609 -118.162122 180 53ft 0kts
13-Jan-21 17:27 33.821609 -118.162122 180 53ft 0kts
13-Jan-21 17:28 33.821609 -118.162122 180 53ft 0kts
13-Jan-21 17:29 33.821609 -118.162122 180 53ft 0kts
13-Jan-21 17:30 33.821609 -118.162122 180 53ft 0kts
13-Jan-21 17:31 33.821609 -118.162122 180 53ft 0kts
13-Jan-21 17:32 33.821609 -118.162122 180 53ft 0kts
13-Jan-21 17:33 33.821609 -118.162122 180 53ft 0kts
13-Jan-21 17:34 33.821609 -118.162122 180 53ft 0kts
13-Jan-21 17:36 33.821609 -118.162122 180 53ft 0kts
13-Jan-21 17:37 33.821609 -118.162122 180 53ft 0kts
13-Jan-21 17:38 33.821609 -118.162122 180 53ft 0kts
13-Jan-21 17:39 33.821609 -118.162122 180 53ft 0kts
13-Jan-21 17:40 33.821609 -118.162122 180 53ft 0kts
13-Jan-21 17:41 33.821609 -118.162122 180 53ft 0kts
13-Jan-21 17:42 33.821609 -118.162122 180 53ft 0kts
13-Jan-21 17:43 33.821609 -118.162122 180 53ft 0kts
13-Jan-21 17:44 33.821609 -118.162122 180 53ft 0kts
13-Jan-21 17:45 33.821609 -118.162122 180 53ft 0kts
13-Jan-21 17:46 33.821609 -118.162122 180 53ft 0kts
13-Jan-21 17:47 33.821609 -118.162122 180 53ft 0kts
13-Jan-21 17:48 33.821609 -118.162122 180 53ft 0kts
13-Jan-21 17:49 33.821609 -118.162122 180 53ft 0kts
13-Jan-21 17:50 33.821609 -118.162122 180 53ft 0kts
13-Jan-21 17:51 33.821609 -118.162122 180 53ft 0kts
13-Jan-21 17:52 33.821609 -118.162122 180 53ft 0kts
13-Jan-21 17:53 33.821515 -118.161965 87 53ft 0kts
13-Jan-21 17:53 33.821515 -118.161965 87 53ft 0kts
13-Jan-21 17:55 33.821515 -118.161965 87 53ft 0kts
13-Jan-21 17:55 33.821515 -118.161961 87 53ft 1kts
13-Jan-21 17:57 33.820975 -118.157775 121 49ft 7kts
13-Jan-21 17:57 33.821644 -118.156420 88 48ft 13kts
13-Jan-21 17:58 33.821644 -118.150884 91 42ft 22kts
13-Jan-21 17:59 33.821607 -118.144946 83 36ft 15kts
13-Jan-21 18:00 33.821908 -118.144171 59 36ft 0kts
13-Jan-21 18:01 33.821908 -118.144171 59 36ft 0kts
13-Jan-21 18:02 33.821908 -118.144171 59 36ft 0kts
13-Jan-21 18:03 33.821908 -118.144171 59 36ft 0kts
13-Jan-21 18:04 33.821908 -118.144171 59 36ft 0kts
13-Jan-21 18:05 33.821908 -118.144171 59 36ft 0kts
13-Jan-21 18:06 33.821908 -118.144171 59 36ft 0kts
13-Jan-21 18:07 33.821908 -118.144171 59 36ft 0kts
13-Jan-21 18:08 33.821908 -118.144171 59 36ft 0kts
13-Jan-21 18:09 33.822740 -118.148638 270 40ft 64kts
13-Jan-21 18:10 33.822961 -118.166726 279 601ft 57kts
13-Jan-21 18:11 33.825867 -118.185368 280 1008ft 71kts
13-Jan-21 18:12 33.828872 -118.205206 280 1496ft 72kts
13-Jan-21 18:13 33.831772 -118.225422 280 1981ft 72kts
13-Jan-21 18:14 33.834647 -118.246739 280 2441ft 76kts
13-Jan-21 18:15 33.837586 -118.268286 294 2944ft 72kts
13-Jan-21 18:16 33.843775 -118.281948 297 3320ft 73kts
13-Jan-21 18:17 33.852167 -118.300642 297 3838ft 72kts
13-Jan-21 18:18 33.860476 -118.319682 297 4333ft 72kts
13-Jan-21 18:19 33.870401 -118.338981 305 4791ft 77kts
13-Jan-21 18:20 33.881486 -118.357692 305 5229ft 79kts
13-Jan-21 18:21 33.893620 -118.378742 305 5701ft 79kts
13-Jan-21 18:22 33.905573 -118.400136 305 6176ft 78kts
13-Jan-21 18:23 33.919721 -118.420460 323 6577ft 82kts
13-Jan-21 18:24 33.938313 -118.436837 323 6966ft 83kts
13-Jan-21 18:25 33.957031 -118.453478 323 7352ft 83kts
13-Jan-21 18:26 33.975335 -118.469918 323 7732ft 81kts
13-Jan-21 18:27 33.993371 -118.485702 324 8110ft 79kts
13-Jan-21 18:28 34.013705 -118.504740 301 8007ft 111kts
13-Jan-21 18:29 34.029260 -118.536899 303 8001ft 110kts
13-Jan-21 18:30 34.044771 -118.568726 303 8001ft 109kts
13-Jan-21 18:31 34.055461 -118.602285 274 8005ft 113kts
13-Jan-21 18:32 34.054847 -118.640704 274 8003ft 115kts
13-Jan-21 18:33 34.053959 -118.679642 274 8006ft 117kts
13-Jan-21 18:34 34.052869 -118.719163 273 8007ft 118kts
13-Jan-21 18:35 34.051645 -118.759178 275 8008ft 119kts
13-Jan-21 18:36 34.063441 -118.795284 299 8010ft 116kts
13-Jan-21 18:37 34.076780 -118.831252 299 8010ft 118kts
13-Jan-21 18:38 34.090322 -118.867417 298 8010ft 118kts
13-Jan-21 18:39 34.104065 -118.903570 298 8012ft 118kts
13-Jan-21 18:40 34.117867 -118.939927 298 8012ft 119kts
13-Jan-21 18:41 34.131554 -118.976739 299 8011ft 120kts
13-Jan-21 18:42 34.145521 -119.013130 304 8012ft 118kts
13-Jan-21 18:43 34.161745 -119.048001 304 8009ft 119kts
13-Jan-21 18:44 34.177962 -119.082801 304 8007ft 118kts
13-Jan-21 18:45 34.194130 -119.117400 303 8006ft 117kts
13-Jan-21 18:46 34.210201 -119.151639 303 8005ft 116kts
13-Jan-21 18:47 34.226212 -119.185570 303 8005ft 116kts
13-Jan-21 18:48 34.242258 -119.219345 303 8004ft 115kts
13-Jan-21 18:49 34.258258 -119.252761 303 8004ft 114kts
13-Jan-21 18:50 34.274248 -119.285859 303 8004ft 113kts
13-Jan-21 18:51 34.290254 -119.318798 303 8003ft 113kts
13-Jan-21 18:52 34.306302 -119.351546 303 8002ft 113kts
13-Jan-21 18:53 34.322469 -119.384054 303 8001ft 112kts
13-Jan-21 18:54 34.338877 -119.416346 303 8000ft 112kts
13-Jan-21 18:55 34.355551 -119.448247 303 7998ft 112kts
13-Jan-21 18:56 34.371567 -119.482815 303 8008ft 124kts
13-Jan-21 18:57 34.387744 -119.520833 303 7998ft 127kts
13-Jan-21 18:58 34.403807 -119.558940 303 7995ft 126kts
13-Jan-21 18:59 34.421374 -119.595613 307 7996ft 125kts
13-Jan-21 19:00 34.440215 -119.631042 307 7995ft 125kts
13-Jan-21 19:01 34.458070 -119.667450 306 7994ft 125kts
13-Jan-21 19:02 34.475764 -119.703731 306 7994ft 125kts
13-Jan-21 19:03 34.493444 -119.740130 306 7994ft 125kts
13-Jan-21 19:04 34.511168 -119.776193 312 7995ft 123kts
13-Jan-21 19:05 34.531310 -119.810590 311 7947ft 128kts
13-Jan-21 19:06 34.551869 -119.845610 310 7944ft 126kts
13-Jan-21 19:07 34.572353 -119.880434 310 7952ft 127kts
13-Jan-21 19:08 34.593794 -119.913997 310 7866ft 123kts
13-Jan-21 19:09 34.614598 -119.948152 303 7372ft 127kts
13-Jan-21 19:10 34.634556 -119.984011 303 6873ft 128kts
13-Jan-21 19:11 34.653866 -120.018920 303 6347ft 116kts
13-Jan-21 19:12 34.671502 -120.050435 303 5834ft 111kts
13-Jan-21 19:13 34.689005 -120.081341 303 5330ft 111kts
13-Jan-21 19:14 34.706481 -120.111940 303 4981ft 108kts
13-Jan-21 19:15 34.724330 -120.143203 303 4978ft 116kts
13-Jan-21 19:16 34.743111 -120.179993 303 4608ft 137kts
13-Jan-21 19:17 34.764151 -120.219361 306 4112ft 140kts
13-Jan-21 19:18 34.784877 -120.257195 306 3566ft 116kts
13-Jan-21 19:19 34.800465 -120.286916 306 3019ft 97kts
13-Jan-21 19:20 34.813521 -120.311901 309 2994ft 91kts
13-Jan-21 19:21 34.827039 -120.336206 308 2998ft 90kts
13-Jan-21 19:23 34.841923 -120.363049 308 2724ft 98kts
13-Jan-21 19:24 34.856812 -120.390394 308 2006ft 94kts
13-Jan-21 19:25 34.870732 -120.416230 311 1234ft 90kts
13-Jan-21 19:26 34.884851 -120.437024 325 558ft 80kts
13-Jan-21 19:27 34.898071 -120.452071 312 264ft 26kts
13-Jan-21 19:28 34.897920 -120.453602 176 264ft 0kts
13-Jan-21 19:29 34.896586 -120.453600 182 264ft 6kts
13-Jan-21 19:30 34.893950 -120.453627 179 264ft 11kts
13-Jan-21 19:31 34.892923 -120.454817 321 264ft 4kts
13-Jan-21 19:32 34.893012 -120.454972 273 264ft 0kts
13-Jan-21 19:33 34.893012 -120.454972 273 264ft 0kts
13-Jan-21 19:34 34.893012 -120.454972 273 264ft 0kts

Navigation Log

Ident Type
Flight plan parsing failed, navigation log unavailable